sensor_id;sensor_type;location;lat;lon;timestamp;temperature;humidity
21275;DHT22;36472;52.170;20.884;2023-09-18T00:04:48;34.40;48.20
21275;DHT22;36472;52.170;20.884;2023-09-18T00:07:17;34.40;48.20
21275;DHT22;36472;52.170;20.884;2023-09-18T00:09:46;34.30;48.30
21275;DHT22;36472;52.170;20.884;2023-09-18T00:12:16;34.30;48.20
21275;DHT22;36472;52.170;20.884;2023-09-18T00:14:48;34.30;48.20
21275;DHT22;36472;52.170;20.884;2023-09-18T00:17:17;34.20;48.30
21275;DHT22;36472;52.170;20.884;2023-09-18T00:19:48;34.20;48.40
21275;DHT22;36472;52.170;20.884;2023-09-18T00:22:19;34.20;48.30
21275;DHT22;36472;52.170;20.884;2023-09-18T00:24:48;34.10;48.40
21275;DHT22;36472;52.170;20.884;2023-09-18T00:27:17;34.10;48.40
21275;DHT22;36472;52.170;20.884;2023-09-18T00:29:46;34.10;48.30
21275;DHT22;36472;52.170;20.884;2023-09-18T00:32:15;34.10;48.30
21275;DHT22;36472;52.170;20.884;2023-09-18T00:34:44;34.00;48.90
21275;DHT22;36472;52.170;20.884;2023-09-18T00:37:14;34.00;48.40
21275;DHT22;36472;52.170;20.884;2023-09-18T00:39:44;34.00;48.40
21275;DHT22;36472;52.170;20.884;2023-09-18T00:42:13;34.00;48.40
21275;DHT22;36472;52.170;20.884;2023-09-18T00:44:43;33.90;48.30
21275;DHT22;36472;52.170;20.884;2023-09-18T00:47:12;33.90;48.20
21275;DHT22;36472;52.170;20.884;2023-09-18T00:49:46;33.90;48.20
21275;DHT22;36472;52.170;20.884;2023-09-18T00:52:20;33.90;48.10
21275;DHT22;36472;52.170;20.884;2023-09-18T00:54:51;33.90;48.20
21275;DHT22;36472;52.170;20.884;2023-09-18T00:57:20;33.80;48.10
21275;DHT22;36472;52.170;20.884;2023-09-18T00:59:50;33.80;48.50
21275;DHT22;36472;52.170;20.884;2023-09-18T01:02:19;33.80;48.50
21275;DHT22;36472;52.170;20.884;2023-09-18T01:04:49;33.80;48.50
21275;DHT22;36472;52.170;20.884;2023-09-18T01:07:19;33.80;49.40
21275;DHT22;36472;52.170;20.884;2023-09-18T01:09:49;33.70;48.70
21275;DHT22;36472;52.170;20.884;2023-09-18T01:12:23;33.70;48.70
21275;DHT22;36472;52.170;20.884;2023-09-18T01:15:02;33.70;48.80
21275;DHT22;36472;52.170;20.884;2023-09-18T01:17:39;33.60;48.60
21275;DHT22;36472;52.170;20.884;2023-09-18T01:20:10;33.70;48.80
21275;DHT22;36472;52.170;20.884;2023-09-18T01:22:41;33.60;48.60
21275;DHT22;36472;52.170;20.884;2023-09-18T01:25:11;33.50;48.60
21275;DHT22;36472;52.170;20.884;2023-09-18T01:27:39;33.50;48.70
21275;DHT22;36472;52.170;20.884;2023-09-18T01:30:10;33.50;48.80
21275;DHT22;36472;52.170;20.884;2023-09-18T01:32:41;33.50;48.80
21275;DHT22;36472;52.170;20.884;2023-09-18T01:35:12;33.50;48.90
21275;DHT22;36472;52.170;20.884;2023-09-18T01:37:46;33.50;49.00
21275;DHT22;36472;52.170;20.884;2023-09-18T01:40:15;33.50;48.90
21275;DHT22;36472;52.170;20.884;2023-09-18T01:42:46;33.50;49.00
21275;DHT22;36472;52.170;20.884;2023-09-18T01:45:15;33.40;49.20
21275;DHT22;36472;52.170;20.884;2023-09-18T01:47:45;33.40;49.20
21275;DHT22;36472;52.170;20.884;2023-09-18T01:50:14;33.40;49.30
21275;DHT22;36472;52.170;20.884;2023-09-18T01:52:43;33.40;49.20
21275;DHT22;36472;52.170;20.884;2023-09-18T01:55:14;33.50;49.40
21275;DHT22;36472;52.170;20.884;2023-09-18T01:57:43;33.40;49.40
21275;DHT22;36472;52.170;20.884;2023-09-18T02:00:13;33.50;49.60
21275;DHT22;36472;52.170;20.884;2023-09-18T02:02:44;33.50;49.50
21275;DHT22;36472;52.170;20.884;2023-09-18T02:05:30;33.50;49.60
21275;DHT22;36472;52.170;20.884;2023-09-18T02:08:00;33.50;49.60
21275;DHT22;36472;52.170;20.884;2023-09-18T02:10:31;33.50;49.90
21275;DHT22;36472;52.170;20.884;2023-09-18T02:13:00;33.60;49.80
21275;DHT22;36472;52.170;20.884;2023-09-18T02:15:31;33.60;49.80
21275;DHT22;36472;52.170;20.884;2023-09-18T02:18:03;33.60;50.00
21275;DHT22;36472;52.170;20.884;2023-09-18T02:20:40;33.70;50.10
21275;DHT22;36472;52.170;20.884;2023-09-18T02:23:09;33.70;49.90
21275;DHT22;36472;52.170;20.884;2023-09-18T02:25:40;33.70;49.90
21275;DHT22;36472;52.170;20.884;2023-09-18T02:28:09;33.80;50.00
21275;DHT22;36472;52.170;20.884;2023-09-18T02:30:38;33.80;50.10
21275;DHT22;36472;52.170;20.884;2023-09-18T02:33:06;33.80;50.20
21275;DHT22;36472;52.170;20.884;2023-09-18T02:35:36;33.80;50.00
21275;DHT22;36472;52.170;20.884;2023-09-18T02:38:05;33.80;50.00
21275;DHT22;36472;52.170;20.884;2023-09-18T02:40:34;33.80;49.90
21275;DHT22;36472;52.170;20.884;2023-09-18T02:43:04;33.80;50.00
21275;DHT22;36472;52.170;20.884;2023-09-18T02:45:33;33.80;50.00
21275;DHT22;36472;52.170;20.884;2023-09-18T02:48:03;33.80;50.70
21275;DHT22;36472;52.170;20.884;2023-09-18T02:50:32;33.80;49.90
21275;DHT22;36472;52.170;20.884;2023-09-18T02:53:01;33.90;50.10
21275;DHT22;36472;52.170;20.884;2023-09-18T02:55:31;33.80;50.00
21275;DHT22;36472;52.170;20.884;2023-09-18T02:58:00;33.80;49.90
21275;DHT22;36472;52.170;20.884;2023-09-18T03:00:30;33.90;50.10
21275;DHT22;36472;52.170;20.884;2023-09-18T03:03:11;33.90;50.10
21275;DHT22;36472;52.170;20.884;2023-09-18T03:05:42;33.90;50.10
21275;DHT22;36472;52.170;20.884;2023-09-18T03:08:13;33.90;50.00
21275;DHT22;36472;52.170;20.884;2023-09-18T03:10:44;34.00;50.10
21275;DHT22;36472;52.170;20.884;2023-09-18T03:13:14;33.90;50.00
21275;DHT22;36472;52.170;20.884;2023-09-18T03:15:48;34.00;50.10
21275;DHT22;36472;52.170;20.884;2023-09-18T03:18:17;33.90;50.00
21275;DHT22;36472;52.170;20.884;2023-09-18T03:20:46;34.00;50.00
21275;DHT22;36472;52.170;20.884;2023-09-18T03:23:15;34.00;50.00
21275;DHT22;36472;52.170;20.884;2023-09-18T03:25:45;34.00;50.00
21275;DHT22;36472;52.170;20.884;2023-09-18T03:28:20;34.00;50.00
21275;DHT22;36472;52.170;20.884;2023-09-18T03:30:51;34.00;50.00
21275;DHT22;36472;52.170;20.884;2023-09-18T03:33:23;34.00;50.00
21275;DHT22;36472;52.170;20.884;2023-09-18T03:35:52;34.00;50.00
21275;DHT22;36472;52.170;20.884;2023-09-18T03:38:27;34.00;50.00
21275;DHT22;36472;52.170;20.884;2023-09-18T03:40:59;34.00;49.90
21275;DHT22;36472;52.170;20.884;2023-09-18T03:43:29;34.00;49.90
21275;DHT22;36472;52.170;20.884;2023-09-18T03:46:04;34.00;50.00
21275;DHT22;36472;52.170;20.884;2023-09-18T03:48:41;34.00;50.00
21275;DHT22;36472;52.170;20.884;2023-09-18T03:51:10;34.00;50.00
21275;DHT22;36472;52.170;20.884;2023-09-18T03:53:43;34.00;50.00
21275;DHT22;36472;52.170;20.884;2023-09-18T03:56:13;34.00;50.00
21275;DHT22;36472;52.170;20.884;2023-09-18T03:58:42;34.00;50.00
21275;DHT22;36472;52.170;20.884;2023-09-18T04:01:15;34.00;50.00
21275;DHT22;36472;52.170;20.884;2023-09-18T04:03:45;33.90;49.90
21275;DHT22;36472;52.170;20.884;2023-09-18T04:06:14;33.90;49.90
21275;DHT22;36472;52.170;20.884;2023-09-18T04:08:46;33.90;50.00
21275;DHT22;36472;52.170;20.884;2023-09-18T04:11:15;34.00;50.00
21275;DHT22;36472;52.170;20.884;2023-09-18T04:13:44;34.00;50.00
21275;DHT22;36472;52.170;20.884;2023-09-18T04:16:15;34.00;50.00
21275;DHT22;36472;52.170;20.884;2023-09-18T04:18:45;34.00;50.00
21275;DHT22;36472;52.170;20.884;2023-09-18T04:21:14;34.00;49.90
21275;DHT22;36472;52.170;20.884;2023-09-18T04:23:42;34.00;49.80
21275;DHT22;36472;52.170;20.884;2023-09-18T04:26:11;34.00;49.80
21275;DHT22;36472;52.170;20.884;2023-09-18T04:28:42;34.00;49.70
21275;DHT22;36472;52.170;20.884;2023-09-18T04:31:11;34.00;49.80
21275;DHT22;36472;52.170;20.884;2023-09-18T04:33:41;34.00;49.80
21275;DHT22;36472;52.170;20.884;2023-09-18T04:36:11;34.00;49.80
21275;DHT22;36472;52.170;20.884;2023-09-18T04:38:40;34.00;49.70
21275;DHT22;36472;52.170;20.884;2023-09-18T04:41:11;34.10;49.90
21275;DHT22;36472;52.170;20.884;2023-09-18T04:43:40;34.00;49.70
21275;DHT22;36472;52.170;20.884;2023-09-18T04:46:09;34.00;49.70
21275;DHT22;36472;52.170;20.884;2023-09-18T04:48:38;34.10;49.80
21275;DHT22;36472;52.170;20.884;2023-09-18T04:51:09;34.10;49.80
21275;DHT22;36472;52.170;20.884;2023-09-18T04:53:39;34.10;49.80
21275;DHT22;36472;52.170;20.884;2023-09-18T04:56:10;34.10;49.90
21275;DHT22;36472;52.170;20.884;2023-09-18T04:58:40;34.10;49.90
21275;DHT22;36472;52.170;20.884;2023-09-18T05:01:09;34.10;49.80
21275;DHT22;36472;52.170;20.884;2023-09-18T05:03:41;34.10;49.80
21275;DHT22;36472;52.170;20.884;2023-09-18T05:06:10;34.10;49.80
21275;DHT22;36472;52.170;20.884;2023-09-18T05:08:39;34.10;49.90
21275;DHT22;36472;52.170;20.884;2023-09-18T05:15:41;34.10;49.70
21275;DHT22;36472;52.170;20.884;2023-09-18T05:18:10;34.20;49.80
21275;DHT22;36472;52.170;20.884;2023-09-18T05:20:40;34.20;49.80
21275;DHT22;36472;52.170;20.884;2023-09-18T05:23:09;34.10;49.80
21275;DHT22;36472;52.170;20.884;2023-09-18T05:25:39;34.20;49.80
21275;DHT22;36472;52.170;20.884;2023-09-18T05:28:09;34.20;49.90
21275;DHT22;36472;52.170;20.884;2023-09-18T05:30:38;34.10;49.80
21275;DHT22;36472;52.170;20.884;2023-09-18T05:33:08;34.20;49.90
21275;DHT22;36472;52.170;20.884;2023-09-18T05:35:41;34.20;50.00
21275;DHT22;36472;52.170;20.884;2023-09-18T05:38:13;34.20;50.00
21275;DHT22;36472;52.170;20.884;2023-09-18T05:40:44;34.20;50.10
21275;DHT22;36472;52.170;20.884;2023-09-18T05:43:14;34.20;49.90
21275;DHT22;36472;52.170;20.884;2023-09-18T05:45:43;34.20;50.00
21275;DHT22;36472;52.170;20.884;2023-09-18T05:48:12;34.20;49.90
21275;DHT22;36472;52.170;20.884;2023-09-18T05:50:42;34.20;49.90
21275;DHT22;36472;52.170;20.884;2023-09-18T05:53:11;34.20;50.10
21275;DHT22;36472;52.170;20.884;2023-09-18T05:55:40;34.30;50.00
21275;DHT22;36472;52.170;20.884;2023-09-18T05:58:09;34.30;50.00
21275;DHT22;36472;52.170;20.884;2023-09-18T06:00:38;34.30;49.90
21275;DHT22;36472;52.170;20.884;2023-09-18T06:03:07;34.30;50.00
21275;DHT22;36472;52.170;20.884;2023-09-18T06:05:37;34.40;50.10
21275;DHT22;36472;52.170;20.884;2023-09-18T06:08:08;34.40;50.20
21275;DHT22;36472;52.170;20.884;2023-09-18T06:10:37;34.40;50.10
21275;DHT22;36472;52.170;20.884;2023-09-18T06:13:06;34.40;50.10
21275;DHT22;36472;52.170;20.884;2023-09-18T06:15:35;34.40;50.10
21275;DHT22;36472;52.170;20.884;2023-09-18T06:18:04;34.40;50.40
21275;DHT22;36472;52.170;20.884;2023-09-18T06:20:34;34.40;50.40
21275;DHT22;36472;52.170;20.884;2023-09-18T06:23:03;34.50;50.40
21275;DHT22;36472;52.170;20.884;2023-09-18T06:25:34;34.50;50.40
21275;DHT22;36472;52.170;20.884;2023-09-18T06:28:03;34.50;50.60
21275;DHT22;36472;52.170;20.884;2023-09-18T06:35:04;34.60;50.80
21275;DHT22;36472;52.170;20.884;2023-09-18T06:37:33;34.70;50.10
21275;DHT22;36472;52.170;20.884;2023-09-18T06:40:03;34.80;50.30
21275;DHT22;36472;52.170;20.884;2023-09-18T06:42:34;34.90;50.20
21275;DHT22;36472;52.170;20.884;2023-09-18T06:45:04;34.90;50.70
21275;DHT22;36472;52.170;20.884;2023-09-18T06:47:34;35.00;50.10
21275;DHT22;36472;52.170;20.884;2023-09-18T06:50:04;35.00;50.10
21275;DHT22;36472;52.170;20.884;2023-09-18T06:52:34;35.10;50.30
21275;DHT22;36472;52.170;20.884;2023-09-18T06:55:03;35.10;50.10
21275;DHT22;36472;52.170;20.884;2023-09-18T07:02:06;35.30;50.10
21275;DHT22;36472;52.170;20.884;2023-09-18T07:04:35;35.40;50.00
21275;DHT22;36472;52.170;20.884;2023-09-18T07:07:04;35.50;50.10
21275;DHT22;36472;52.170;20.884;2023-09-18T07:09:33;35.60;49.90
21275;DHT22;36472;52.170;20.884;2023-09-18T07:12:14;35.70;50.00
21275;DHT22;36472;52.170;20.884;2023-09-18T07:14:42;35.70;50.20
21275;DHT22;36472;52.170;20.884;2023-09-18T07:17:13;35.90;50.00
21275;DHT22;36472;52.170;20.884;2023-09-18T07:19:42;36.00;49.90
21275;DHT22;36472;52.170;20.884;2023-09-18T07:22:12;36.20;49.50
21275;DHT22;36472;52.170;20.884;2023-09-18T07:24:40;36.20;49.30
21275;DHT22;36472;52.170;20.884;2023-09-18T07:27:12;36.30;49.40
21275;DHT22;36472;52.170;20.884;2023-09-18T07:29:41;36.40;49.20
21275;DHT22;36472;52.170;20.884;2023-09-18T07:32:10;36.50;49.20
21275;DHT22;36472;52.170;20.884;2023-09-18T07:34:56;36.60;49.10
21275;DHT22;36472;52.170;20.884;2023-09-18T07:37:25;36.70;48.70
21275;DHT22;36472;52.170;20.884;2023-09-18T07:39:55;36.80;49.10
21275;DHT22;36472;52.170;20.884;2023-09-18T07:42:24;36.80;48.90
21275;DHT22;36472;52.170;20.884;2023-09-18T07:44:53;36.90;48.50
21275;DHT22;36472;52.170;20.884;2023-09-18T07:47:27;37.00;48.80
21275;DHT22;36472;52.170;20.884;2023-09-18T07:49:57;37.10;48.30
21275;DHT22;36472;52.170;20.884;2023-09-18T07:52:26;37.10;48.60
21275;DHT22;36472;52.170;20.884;2023-09-18T07:54:55;37.10;48.40
21275;DHT22;36472;52.170;20.884;2023-09-18T07:57:25;37.20;48.30
21275;DHT22;36472;52.170;20.884;2023-09-18T07:59:55;37.20;48.60
21275;DHT22;36472;52.170;20.884;2023-09-18T08:02:24;37.30;48.70
21275;DHT22;36472;52.170;20.884;2023-09-18T08:04:57;37.40;48.30
21275;DHT22;36472;52.170;20.884;2023-09-18T08:07:27;37.50;48.60
21275;DHT22;36472;52.170;20.884;2023-09-18T08:09:56;37.60;47.90
21275;DHT22;36472;52.170;20.884;2023-09-18T08:12:25;37.60;48.10
21275;DHT22;36472;52.170;20.884;2023-09-18T08:19:27;37.80;47.50
21275;DHT22;36472;52.170;20.884;2023-09-18T08:21:58;37.90;47.50
21275;DHT22;36472;52.170;20.884;2023-09-18T08:24:31;37.90;47.90
21275;DHT22;36472;52.170;20.884;2023-09-18T08:27:00;37.90;47.60
21275;DHT22;36472;52.170;20.884;2023-09-18T08:29:29;37.90;47.70
21275;DHT22;36472;52.170;20.884;2023-09-18T08:31:58;37.90;47.50
21275;DHT22;36472;52.170;20.884;2023-09-18T08:34:27;38.00;48.00
21275;DHT22;36472;52.170;20.884;2023-09-18T08:36:57;38.10;48.10
21275;DHT22;36472;52.170;20.884;2023-09-18T08:39:27;38.30;47.70
21275;DHT22;36472;52.170;20.884;2023-09-18T08:42:02;38.40;47.20
21275;DHT22;36472;52.170;20.884;2023-09-18T08:44:32;38.60;46.90
21275;DHT22;36472;52.170;20.884;2023-09-18T08:47:03;38.70;46.70
21275;DHT22;36472;52.170;20.884;2023-09-18T08:49:34;38.80;46.30
21275;DHT22;36472;52.170;20.884;2023-09-18T08:52:06;38.90;46.20
21275;DHT22;36472;52.170;20.884;2023-09-18T08:54:36;39.00;46.20
21275;DHT22;36472;52.170;20.884;2023-09-18T08:57:05;39.10;46.80
21275;DHT22;36472;52.170;20.884;2023-09-18T08:59:35;39.10;46.00
21275;DHT22;36472;52.170;20.884;2023-09-18T09:02:04;39.30;45.40
21275;DHT22;36472;52.170;20.884;2023-09-18T09:04:34;39.40;44.90
21275;DHT22;36472;52.170;20.884;2023-09-18T09:07:05;39.50;44.90
21275;DHT22;36472;52.170;20.884;2023-09-18T09:09:35;39.60;45.00
21275;DHT22;36472;52.170;20.884;2023-09-18T09:12:05;39.70;44.70
21275;DHT22;36472;52.170;20.884;2023-09-18T09:14:34;39.80;44.60
21275;DHT22;36472;52.170;20.884;2023-09-18T09:17:04;39.80;43.30
21275;DHT22;36472;52.170;20.884;2023-09-18T09:19:34;39.90;43.60
21275;DHT22;36472;52.170;20.884;2023-09-18T09:22:07;40.00;44.20
21275;DHT22;36472;52.170;20.884;2023-09-18T09:24:39;40.10;43.70
21275;DHT22;36472;52.170;20.884;2023-09-18T09:27:09;40.20;43.70
21275;DHT22;36472;52.170;20.884;2023-09-18T09:29:38;40.20;42.90
21275;DHT22;36472;52.170;20.884;2023-09-18T09:32:15;40.30;43.10
21275;DHT22;36472;52.170;20.884;2023-09-18T09:34:45;40.40;42.50
21275;DHT22;36472;52.170;20.884;2023-09-18T09:37:16;40.50;42.30
21275;DHT22;36472;52.170;20.884;2023-09-18T09:39:51;40.60;42.60
21275;DHT22;36472;52.170;20.884;2023-09-18T09:42:21;40.80;42.20
21275;DHT22;36472;52.170;20.884;2023-09-18T09:45:03;40.90;42.50
21275;DHT22;36472;52.170;20.884;2023-09-18T09:47:34;41.10;41.40
21275;DHT22;36472;52.170;20.884;2023-09-18T09:50:07;41.30;40.80
21275;DHT22;36472;52.170;20.884;2023-09-18T09:52:44;41.40;40.50
21275;DHT22;36472;52.170;20.884;2023-09-18T09:59:48;41.70;39.60
21275;DHT22;36472;52.170;20.884;2023-09-18T10:02:18;41.90;39.30
21275;DHT22;36472;52.170;20.884;2023-09-18T10:04:50;42.10;38.80
21275;DHT22;36472;52.170;20.884;2023-09-18T10:07:20;42.20;39.10
21275;DHT22;36472;52.170;20.884;2023-09-18T10:09:52;42.20;38.50
21275;DHT22;36472;52.170;20.884;2023-09-18T10:12:21;42.30;38.60
21275;DHT22;36472;52.170;20.884;2023-09-18T10:14:54;42.20;38.40
21275;DHT22;36472;52.170;20.884;2023-09-18T10:17:31;42.10;37.90
21275;DHT22;36472;52.170;20.884;2023-09-18T10:20:07;42.00;38.20
21275;DHT22;36472;52.170;20.884;2023-09-18T10:22:46;41.90;38.40
21275;DHT22;36472;52.170;20.884;2023-09-18T10:25:21;41.80;38.00
21275;DHT22;36472;52.170;20.884;2023-09-18T10:27:53;41.80;38.00
21275;DHT22;36472;52.170;20.884;2023-09-18T10:30:27;41.70;37.70
21275;DHT22;36472;52.170;20.884;2023-09-18T10:32:58;41.60;38.10
21275;DHT22;36472;52.170;20.884;2023-09-18T10:40:00;41.60;39.00
21275;DHT22;36472;52.170;20.884;2023-09-18T10:42:31;41.70;38.60
21275;DHT22;36472;52.170;20.884;2023-09-18T10:45:02;41.80;37.70
21275;DHT22;36472;52.170;20.884;2023-09-18T10:47:33;41.80;38.10
21275;DHT22;36472;52.170;20.884;2023-09-18T10:50:04;41.90;37.80
21275;DHT22;36472;52.170;20.884;2023-09-18T10:52:35;42.10;38.80
21275;DHT22;36472;52.170;20.884;2023-09-18T10:55:05;42.40;38.50
21275;DHT22;36472;52.170;20.884;2023-09-18T10:57:51;42.60;37.70
21275;DHT22;36472;52.170;20.884;2023-09-18T11:14:24;43.10;35.60
21275;DHT22;36472;52.170;20.884;2023-09-18T11:26:17;42.50;36.40
21275;DHT22;36472;52.170;20.884;2023-09-18T11:33:35;42.20;36.00
21275;DHT22;36472;52.170;20.884;2023-09-18T11:36:13;42.20;36.20
21275;DHT22;36472;52.170;20.884;2023-09-18T11:38:53;42.20;36.60
21275;DHT22;36472;52.170;20.884;2023-09-18T11:41:28;42.20;36.50
21275;DHT22;36472;52.170;20.884;2023-09-18T11:44:31;42.20;36.70
21275;DHT22;36472;52.170;20.884;2023-09-18T11:47:10;42.20;35.50
21275;DHT22;36472;52.170;20.884;2023-09-18T11:49:50;42.20;36.00
21275;DHT22;36472;52.170;20.884;2023-09-18T11:58:03;42.30;36.40
21275;DHT22;36472;52.170;20.884;2023-09-18T12:00:37;42.40;35.60
21275;DHT22;36472;52.170;20.884;2023-09-18T12:03:14;42.40;36.10
21275;DHT22;36472;52.170;20.884;2023-09-18T12:10:27;42.40;36.10
21275;DHT22;36472;52.170;20.884;2023-09-18T12:12:56;42.40;35.60
21275;DHT22;36472;52.170;20.884;2023-09-18T12:15:27;42.20;35.70
21275;DHT22;36472;52.170;20.884;2023-09-18T12:18:05;42.20;35.70
21275;DHT22;36472;52.170;20.884;2023-09-18T12:25:09;41.80;35.90
21275;DHT22;36472;52.170;20.884;2023-09-18T12:27:44;41.60;36.20
21275;DHT22;36472;52.170;20.884;2023-09-18T12:30:14;41.40;36.90
21275;DHT22;36472;52.170;20.884;2023-09-18T12:32:49;41.30;36.70
21275;DHT22;36472;52.170;20.884;2023-09-18T12:35:19;41.20;36.90
21275;DHT22;36472;52.170;20.884;2023-09-18T12:37:49;41.10;37.40
21275;DHT22;36472;52.170;20.884;2023-09-18T12:40:25;41.10;37.30
21275;DHT22;36472;52.170;20.884;2023-09-18T12:42:57;41.00;37.80
21275;DHT22;36472;52.170;20.884;2023-09-18T12:45:27;41.00;37.60
21275;DHT22;36472;52.170;20.884;2023-09-18T12:47:58;40.90;37.20
21275;DHT22;36472;52.170;20.884;2023-09-18T12:50:28;40.90;38.00
21275;DHT22;36472;52.170;20.884;2023-09-18T12:53:08;40.90;37.70
21275;DHT22;36472;52.170;20.884;2023-09-18T12:55:39;40.90;38.00
21275;DHT22;36472;52.170;20.884;2023-09-18T12:58:18;40.90;37.20
21275;DHT22;36472;52.170;20.884;2023-09-18T13:00:49;40.90;37.00
21275;DHT22;36472;52.170;20.884;2023-09-18T13:03:18;40.90;37.20
21275;DHT22;36472;52.170;20.884;2023-09-18T13:05:48;40.90;37.10
21275;DHT22;36472;52.170;20.884;2023-09-18T13:08:22;40.90;37.60
21275;DHT22;36472;52.170;20.884;2023-09-18T13:10:52;40.90;37.80
21275;DHT22;36472;52.170;20.884;2023-09-18T13:13:23;40.80;37.20
21275;DHT22;36472;52.170;20.884;2023-09-18T13:15:57;40.70;37.20
21275;DHT22;36472;52.170;20.884;2023-09-18T13:18:27;40.80;37.90
21275;DHT22;36472;52.170;20.884;2023-09-18T13:20:57;40.80;37.50
21275;DHT22;36472;52.170;20.884;2023-09-18T13:23:31;40.80;37.70
21275;DHT22;36472;52.170;20.884;2023-09-18T13:26:01;40.80;37.40
21275;DHT22;36472;52.170;20.884;2023-09-18T13:28:33;40.80;37.80
21275;DHT22;36472;52.170;20.884;2023-09-18T13:31:05;40.80;37.80
21275;DHT22;36472;52.170;20.884;2023-09-18T13:33:38;40.80;37.60
21275;DHT22;36472;52.170;20.884;2023-09-18T13:36:08;40.80;37.70
21275;DHT22;36472;52.170;20.884;2023-09-18T13:38:37;40.80;37.30
21275;DHT22;36472;52.170;20.884;2023-09-18T13:41:06;40.80;37.30
21275;DHT22;36472;52.170;20.884;2023-09-18T13:43:37;40.80;37.20
21275;DHT22;36472;52.170;20.884;2023-09-18T13:46:06;40.80;36.90
21275;DHT22;36472;52.170;20.884;2023-09-18T13:48:35;40.70;36.90
21275;DHT22;36472;52.170;20.884;2023-09-18T13:51:06;40.80;37.60
21275;DHT22;36472;52.170;20.884;2023-09-18T13:53:37;40.70;37.20
21275;DHT22;36472;52.170;20.884;2023-09-18T14:00:40;40.80;36.60
21275;DHT22;36472;52.170;20.884;2023-09-18T14:03:11;40.80;37.00
21275;DHT22;36472;52.170;20.884;2023-09-18T14:05:43;40.80;36.90
21275;DHT22;36472;52.170;20.884;2023-09-18T14:08:13;40.80;36.10
21275;DHT22;36472;52.170;20.884;2023-09-18T14:10:42;40.70;36.50
21275;DHT22;36472;52.170;20.884;2023-09-18T14:13:11;40.70;36.70
21275;DHT22;36472;52.170;20.884;2023-09-18T14:16:00;40.60;37.00
21275;DHT22;36472;52.170;20.884;2023-09-18T14:18:49;40.60;37.10
21275;DHT22;36472;52.170;20.884;2023-09-18T14:21:20;40.40;36.80
21275;DHT22;36472;52.170;20.884;2023-09-18T14:23:49;40.40;37.10
21275;DHT22;36472;52.170;20.884;2023-09-18T14:26:18;40.40;36.90
21275;DHT22;36472;52.170;20.884;2023-09-18T14:28:48;40.40;37.20
21275;DHT22;36472;52.170;20.884;2023-09-18T14:31:18;40.40;36.90
21275;DHT22;36472;52.170;20.884;2023-09-18T14:33:47;40.50;36.70
21275;DHT22;36472;52.170;20.884;2023-09-18T14:36:16;40.50;36.90
21275;DHT22;36472;52.170;20.884;2023-09-18T14:38:45;40.50;36.70
21275;DHT22;36472;52.170;20.884;2023-09-18T14:41:15;40.50;37.20
21275;DHT22;36472;52.170;20.884;2023-09-18T14:43:45;40.50;36.70
21275;DHT22;36472;52.170;20.884;2023-09-18T14:46:14;40.50;36.80
21275;DHT22;36472;52.170;20.884;2023-09-18T14:48:45;40.50;37.20
21275;DHT22;36472;52.170;20.884;2023-09-18T14:51:15;40.40;37.20
21275;DHT22;36472;52.170;20.884;2023-09-18T14:53:44;40.40;37.30
21275;DHT22;36472;52.170;20.884;2023-09-18T14:56:13;40.40;37.20
21275;DHT22;36472;52.170;20.884;2023-09-18T14:58:42;40.40;37.40
21275;DHT22;36472;52.170;20.884;2023-09-18T15:01:12;40.40;38.00
21275;DHT22;36472;52.170;20.884;2023-09-18T15:03:42;40.50;38.10
21275;DHT22;36472;52.170;20.884;2023-09-18T15:06:14;40.50;37.80
21275;DHT22;36472;52.170;20.884;2023-09-18T15:08:43;40.50;38.00
21275;DHT22;36472;52.170;20.884;2023-09-18T15:11:12;40.50;38.00
21275;DHT22;36472;52.170;20.884;2023-09-18T15:13:45;40.40;38.00
21275;DHT22;36472;52.170;20.884;2023-09-18T15:16:14;40.40;38.60
21275;DHT22;36472;52.170;20.884;2023-09-18T15:18:43;40.40;38.50
21275;DHT22;36472;52.170;20.884;2023-09-18T15:21:14;40.40;38.30
21275;DHT22;36472;52.170;20.884;2023-09-18T15:23:43;40.40;38.40
21275;DHT22;36472;52.170;20.884;2023-09-18T15:26:12;40.40;38.80
21275;DHT22;36472;52.170;20.884;2023-09-18T15:28:41;40.30;38.80
21275;DHT22;36472;52.170;20.884;2023-09-18T15:31:10;40.30;39.20
21275;DHT22;36472;52.170;20.884;2023-09-18T15:33:39;40.30;39.30
21275;DHT22;36472;52.170;20.884;2023-09-18T15:36:08;40.20;39.20
21275;DHT22;36472;52.170;20.884;2023-09-18T15:38:41;40.20;39.50
21275;DHT22;36472;52.170;20.884;2023-09-18T15:41:10;40.20;39.70
21275;DHT22;36472;52.170;20.884;2023-09-18T15:43:39;40.20;39.70
21275;DHT22;36472;52.170;20.884;2023-09-18T15:46:09;40.10;39.70
21275;DHT22;36472;52.170;20.884;2023-09-18T15:48:37;40.10;39.80
21275;DHT22;36472;52.170;20.884;2023-09-18T15:51:07;40.00;39.70
21275;DHT22;36472;52.170;20.884;2023-09-18T15:53:37;39.90;39.80
21275;DHT22;36472;52.170;20.884;2023-09-18T15:56:09;39.90;40.00
21275;DHT22;36472;52.170;20.884;2023-09-18T15:58:38;39.90;40.20
21275;DHT22;36472;52.170;20.884;2023-09-18T16:01:07;39.80;40.20
21275;DHT22;36472;52.170;20.884;2023-09-18T16:08:12;39.70;40.50
21275;DHT22;36472;52.170;20.884;2023-09-18T16:10:41;39.60;40.70
21275;DHT22;36472;52.170;20.884;2023-09-18T16:13:12;39.60;40.80
21275;DHT22;36472;52.170;20.884;2023-09-18T16:15:41;39.60;40.90
21275;DHT22;36472;52.170;20.884;2023-09-18T16:22:46;39.50;40.90
21275;DHT22;36472;52.170;20.884;2023-09-18T16:25:15;39.40;41.10
21275;DHT22;36472;52.170;20.884;2023-09-18T16:27:44;39.40;41.20
21275;DHT22;36472;52.170;20.884;2023-09-18T16:30:14;39.40;41.40
21275;DHT22;36472;52.170;20.884;2023-09-18T16:32:43;39.30;41.40
21275;DHT22;36472;52.170;20.884;2023-09-18T16:35:12;39.30;41.50
21275;DHT22;36472;52.170;20.884;2023-09-18T16:37:42;39.30;41.60
21275;DHT22;36472;52.170;20.884;2023-09-18T16:40:13;39.20;41.50
21275;DHT22;36472;52.170;20.884;2023-09-18T16:42:42;39.20;41.70
21275;DHT22;36472;52.170;20.884;2023-09-18T16:45:14;39.20;41.80
21275;DHT22;36472;52.170;20.884;2023-09-18T16:47:43;39.10;41.80
21275;DHT22;36472;52.170;20.884;2023-09-18T16:50:12;39.10;42.00
21275;DHT22;36472;52.170;20.884;2023-09-18T16:52:42;38.90;41.90
21275;DHT22;36472;52.170;20.884;2023-09-18T16:55:13;38.90;42.00
21275;DHT22;36472;52.170;20.884;2023-09-18T16:57:42;38.90;42.10
21275;DHT22;36472;52.170;20.884;2023-09-18T17:00:12;38.90;42.10
21275;DHT22;36472;52.170;20.884;2023-09-18T17:02:45;38.80;42.10
21275;DHT22;36472;52.170;20.884;2023-09-18T17:05:14;38.70;42.20